sensor_id;sensor_type;location;lat;lon;timestamp;pressure;altitude;pressure_sealevel;temperature;humidity
3524;BME280;1776;53.330;11.498;2023-02-22T00:00:53;21952.88;;;-147.39;76.63
3524;BME280;1776;53.330;11.498;2023-02-22T00:03:24;21910.19;;;-147.39;76.87
3524;BME280;1776;53.330;11.498;2023-02-22T00:05:53;21928.47;;;-147.39;76.88
3524;BME280;1776;53.330;11.498;2023-02-22T00:08:20;21898.00;;;-147.39;77.30
3524;BME280;1776;53.330;11.498;2023-02-22T00:10:46;21877.69;;;-147.39;77.67
3524;BME280;1776;53.330;11.498;2023-02-22T00:13:15;21904.09;;;-147.39;77.76
3524;BME280;1776;53.330;11.498;2023-02-22T00:15:41;21891.91;;;-147.39;77.49
3524;BME280;1776;53.330;11.498;2023-02-22T00:18:07;21910.19;;;-147.39;76.90
3524;BME280;1776;53.330;11.498;2023-02-22T00:20:34;21938.63;;;-147.39;77.11
3524;BME280;1776;53.330;11.498;2023-02-22T00:23:03;21853.28;;;-147.39;76.90
3524;BME280;1776;53.330;11.498;2023-02-22T00:25:31;21956.94;;;-147.39;76.69
3524;BME280;1776;53.330;11.498;2023-02-22T00:27:56;21983.34;;;-147.39;76.37
3524;BME280;1776;53.330;11.498;2023-02-22T00:30:25;21934.56;;;-147.39;76.44
3524;BME280;1776;53.330;11.498;2023-02-22T00:32:51;21965.06;;;-147.39;76.44
3524;BME280;1776;53.330;11.498;2023-02-22T00:35:19;21944.75;;;-147.39;76.42
3524;BME280;1776;53.330;11.498;2023-02-22T00:37:49;21940.66;;;-147.39;76.24
3524;BME280;1776;53.330;11.498;2023-02-22T00:40:21;21942.69;;;-147.39;76.26
3524;BME280;1776;53.330;11.498;2023-02-22T00:42:47;21999.59;;;-147.39;75.83
3524;BME280;1776;53.330;11.498;2023-02-22T00:45:16;21971.16;;;-147.39;75.83
3524;BME280;1776;53.330;11.498;2023-02-22T00:47:41;21995.53;;;-147.39;75.60
3524;BME280;1776;53.330;11.498;2023-02-22T00:50:07;22011.78;;;-147.39;75.89
3524;BME280;1776;53.330;11.498;2023-02-22T00:52:34;21983.34;;;-147.39;75.68
3524;BME280;1776;53.330;11.498;2023-02-22T00:55:00;22048.38;;;-147.39;75.93
3524;BME280;1776;53.330;11.498;2023-02-22T00:57:26;21958.97;;;-147.39;75.85
3524;BME280;1776;53.330;11.498;2023-02-22T00:59:51;21981.31;;;-147.39;76.13
3524;BME280;1776;53.330;11.498;2023-02-22T01:02:17;21914.25;;;-147.39;76.26
3524;BME280;1776;53.330;11.498;2023-02-22T01:04:42;21952.88;;;-147.39;76.26
3524;BME280;1776;53.330;11.498;2023-02-22T01:07:07;21916.28;;;-147.39;76.84
3524;BME280;1776;53.330;11.498;2023-02-22T01:09:33;21926.44;;;-147.39;76.77
3524;BME280;1776;53.330;11.498;2023-02-22T01:11:59;21928.47;;;-147.39;76.56
3524;BME280;1776;53.330;11.498;2023-02-22T01:14:25;21885.81;;;-147.39;76.71
3524;BME280;1776;53.330;11.498;2023-02-22T01:16:52;21914.25;;;-147.39;77.31
3524;BME280;1776;53.330;11.498;2023-02-22T01:19:18;21898.00;;;-147.39;77.55
3524;BME280;1776;53.330;11.498;2023-02-22T01:21:43;21875.66;;;-147.39;77.63
3524;BME280;1776;53.330;11.498;2023-02-22T01:24:09;21837.03;;;-147.39;78.11
3524;BME280;1776;53.330;11.498;2023-02-22T01:26:34;21859.38;;;-147.39;78.30
3524;BME280;1776;53.330;11.498;2023-02-22T01:28:59;21853.28;;;-147.39;77.97
3524;BME280;1776;53.330;11.498;2023-02-22T01:31:25;21881.75;;;-147.39;77.96
3524;BME280;1776;53.330;11.498;2023-02-22T01:33:50;21871.59;;;-147.39;77.90
3524;BME280;1776;53.330;11.498;2023-02-22T01:36:16;21835.00;;;-147.39;77.71
3524;BME280;1776;53.330;11.498;2023-02-22T01:38:43;21898.00;;;-147.39;77.64
3524;BME280;1776;53.330;11.498;2023-02-22T01:41:10;21867.50;;;-147.39;77.74
3524;BME280;1776;53.330;11.498;2023-02-22T01:43:36;21857.34;;;-147.39;77.64
3524;BME280;1776;53.330;11.498;2023-02-22T01:46:18;21891.91;;;-147.39;77.36
3524;BME280;1776;53.330;11.498;2023-02-22T01:48:49;21906.13;;;-147.39;77.23
3524;BME280;1776;53.330;11.498;2023-02-22T01:51:28;21906.13;;;-147.39;77.19
3524;BME280;1776;53.330;11.498;2023-02-22T01:53:58;21991.47;;;-147.39;76.99
3524;BME280;1776;53.330;11.498;2023-02-22T01:56:27;21729.34;;;-147.39;77.21
3524;BME280;1776;53.330;11.498;2023-02-22T01:58:58;21918.31;;;-147.39;77.13
3524;BME280;1776;53.330;11.498;2023-02-22T02:01:25;21922.38;;;-147.39;77.20
3524;BME280;1776;53.330;11.498;2023-02-22T02:03:55;21889.88;;;-147.39;77.21
3524;BME280;1776;53.330;11.498;2023-02-22T02:06:23;21902.06;;;-147.39;77.19
3524;BME280;1776;53.330;11.498;2023-02-22T02:09:18;21857.34;;;-147.39;77.49
3524;BME280;1776;53.330;11.498;2023-02-22T02:11:45;21920.34;;;-147.39;77.40
3524;BME280;1776;53.330;11.498;2023-02-22T02:14:11;21820.78;;;-147.39;77.77
3524;BME280;1776;53.330;11.498;2023-02-22T02:16:42;21873.63;;;-147.39;77.59
3524;BME280;1776;53.330;11.498;2023-02-22T02:19:41;21835.00;;;-147.39;77.61
3524;BME280;1776;53.330;11.498;2023-02-22T02:33:42;21861.41;;;-147.39;77.75
3524;BME280;1776;53.330;11.498;2023-02-22T02:36:17;21832.97;;;-147.39;77.82
3524;BME280;1776;53.330;11.498;2023-02-22T02:38:49;21853.28;;;-147.39;77.93
3524;BME280;1776;53.330;11.498;2023-02-22T02:41:24;21843.13;;;-147.39;78.01
3524;BME280;1776;53.330;11.498;2023-02-22T02:44:04;21843.13;;;-147.39;78.07
3524;BME280;1776;53.330;11.498;2023-02-22T02:46:38;21814.69;;;-147.39;77.82
3524;BME280;1776;53.330;11.498;2023-02-22T02:49:12;21857.34;;;-147.39;77.77
3524;BME280;1776;53.330;11.498;2023-02-22T02:51:44;21839.06;;;-147.39;77.83
3524;BME280;1776;53.330;11.498;2023-02-22T02:54:12;21981.31;;;-147.39;78.20
3524;BME280;1776;53.330;11.498;2023-02-22T02:56:37;21826.88;;;-147.39;78.08
3524;BME280;1776;53.330;11.498;2023-02-22T02:59:02;21889.88;;;-147.39;78.01
3524;BME280;1776;53.330;11.498;2023-02-22T03:13:13;21851.25;;;-147.39;77.56
3524;BME280;1776;53.330;11.498;2023-02-22T03:18:23;21965.06;;;-147.39;76.96
3524;BME280;1776;53.330;11.498;2023-02-22T03:21:24;21865.47;;;-147.39;77.31
3524;BME280;1776;53.330;11.498;2023-02-22T03:24:00;21851.25;;;-147.39;77.19
3524;BME280;1776;53.330;11.498;2023-02-22T03:26:34;21824.84;;;-147.39;76.79
3524;BME280;1776;53.330;11.498;2023-02-22T03:29:04;21898.00;;;-147.39;77.11
3524;BME280;1776;53.330;11.498;2023-02-22T03:31:35;21875.66;;;-147.39;77.28
3524;BME280;1776;53.330;11.498;2023-02-22T03:34:29;21847.19;;;-147.39;77.39
3524;BME280;1776;53.330;11.498;2023-02-22T03:37:05;21849.22;;;-147.39;77.39
3524;BME280;1776;53.330;11.498;2023-02-22T03:39:34;21869.53;;;-147.39;77.23
3524;BME280;1776;53.330;11.498;2023-02-22T03:42:27;21835.00;;;-147.39;77.27
3524;BME280;1776;53.330;11.498;2023-02-22T03:44:54;21898.00;;;-147.39;76.98
3524;BME280;1776;53.330;11.498;2023-02-22T03:47:36;21887.84;;;-147.39;77.23
3524;BME280;1776;53.330;11.498;2023-02-22T03:50:08;21883.78;;;-147.39;77.26
3524;BME280;1776;53.330;11.498;2023-02-22T03:52:35;21843.13;;;-147.39;77.17
3524;BME280;1776;53.330;11.498;2023-02-22T03:55:02;21835.00;;;-147.39;76.92
3524;BME280;1776;53.330;11.498;2023-02-22T03:57:32;21857.34;;;-147.39;77.01
3524;BME280;1776;53.330;11.498;2023-02-22T04:00:00;21843.13;;;-147.39;76.89
3524;BME280;1776;53.330;11.498;2023-02-22T04:02:25;21906.13;;;-147.39;77.01
3524;BME280;1776;53.330;11.498;2023-02-22T04:04:50;21855.31;;;-147.39;77.25
3524;BME280;1776;53.330;11.498;2023-02-22T04:07:16;21885.81;;;-147.39;77.18
3524;BME280;1776;53.330;11.498;2023-02-22T04:09:41;21849.22;;;-147.39;76.90
3524;BME280;1776;53.330;11.498;2023-02-22T04:12:07;21902.06;;;-147.39;77.03
3524;BME280;1776;53.330;11.498;2023-02-22T04:14:33;21857.34;;;-147.39;76.86
3524;BME280;1776;53.330;11.498;2023-02-22T04:16:58;21887.84;;;-147.39;76.75
3524;BME280;1776;53.330;11.498;2023-02-22T04:19:24;21843.13;;;-147.39;76.84
3524;BME280;1776;53.330;11.498;2023-02-22T04:21:49;21891.91;;;-147.39;76.90
3524;BME280;1776;53.330;11.498;2023-02-22T04:24:14;21855.31;;;-147.39;76.89
3524;BME280;1776;53.330;11.498;2023-02-22T04:26:40;21885.81;;;-147.39;77.07
3524;BME280;1776;53.330;11.498;2023-02-22T04:29:06;21847.19;;;-147.39;76.88
3524;BME280;1776;53.330;11.498;2023-02-22T04:31:32;21847.19;;;-147.39;76.80
3524;BME280;1776;53.330;11.498;2023-02-22T04:33:58;21877.69;;;-147.39;76.67
3524;BME280;1776;53.330;11.498;2023-02-22T04:36:23;21883.78;;;-147.39;76.41
3524;BME280;1776;53.330;11.498;2023-02-22T04:38:49;21891.91;;;-147.39;76.51
3524;BME280;1776;53.330;11.498;2023-02-22T04:41:16;21898.00;;;-147.39;76.71
3524;BME280;1776;53.330;11.498;2023-02-22T04:43:42;21971.16;;;-147.39;76.93
3524;BME280;1776;53.330;11.498;2023-02-22T04:46:07;21883.78;;;-147.39;76.92
3524;BME280;1776;53.330;11.498;2023-02-22T04:48:32;21898.00;;;-147.39;76.71
3524;BME280;1776;53.330;11.498;2023-02-22T04:50:57;21839.06;;;-147.39;76.54
3524;BME280;1776;53.330;11.498;2023-02-22T04:53:23;21916.28;;;-147.39;76.94
3524;BME280;1776;53.330;11.498;2023-02-22T04:55:48;21863.44;;;-147.39;76.93
3524;BME280;1776;53.330;11.498;2023-02-22T04:58:13;21847.19;;;-147.39;77.01
3524;BME280;1776;53.330;11.498;2023-02-22T05:00:38;21851.25;;;-147.39;76.87
3524;BME280;1776;53.330;11.498;2023-02-22T05:03:04;21898.00;;;-147.39;76.67
3524;BME280;1776;53.330;11.498;2023-02-22T05:05:29;21887.84;;;-147.39;76.56
3524;BME280;1776;53.330;11.498;2023-02-22T05:07:54;21871.59;;;-147.39;76.35
3524;BME280;1776;53.330;11.498;2023-02-22T05:10:19;21861.41;;;-147.39;76.45
3524;BME280;1776;53.330;11.498;2023-02-22T05:12:45;21849.22;;;-147.39;76.65
3524;BME280;1776;53.330;11.498;2023-02-22T05:15:16;21885.81;;;-147.39;76.67
3524;BME280;1776;53.330;11.498;2023-02-22T05:17:41;21875.66;;;-147.39;77.03
3524;BME280;1776;53.330;11.498;2023-02-22T05:20:07;21853.28;;;-147.39;77.03
3524;BME280;1776;53.330;11.498;2023-02-22T05:22:33;21946.78;;;-147.39;77.67
3524;BME280;1776;53.330;11.498;2023-02-22T05:24:58;21828.91;;;-147.39;77.55
3524;BME280;1776;53.330;11.498;2023-02-22T05:27:23;21871.59;;;-147.39;77.17
3524;BME280;1776;53.330;11.498;2023-02-22T05:29:48;21822.81;;;-147.39;77.32
3524;BME280;1776;53.330;11.498;2023-02-22T05:32:14;21843.13;;;-147.39;77.18
3524;BME280;1776;53.330;11.498;2023-02-22T05:34:39;21861.41;;;-147.39;77.01
3524;BME280;1776;53.330;11.498;2023-02-22T05:37:05;21855.31;;;-147.39;77.03
3524;BME280;1776;53.330;11.498;2023-02-22T05:39:30;21863.44;;;-147.39;76.91
3524;BME280;1776;53.330;11.498;2023-02-22T05:41:56;21806.56;;;-147.39;77.00
3524;BME280;1776;53.330;11.498;2023-02-22T05:44:22;21857.34;;;-147.39;77.25
3524;BME280;1776;53.330;11.498;2023-02-22T05:46:48;21857.34;;;-147.39;77.78
3524;BME280;1776;53.330;11.498;2023-02-22T05:49:14;21830.94;;;-147.39;77.74
3524;BME280;1776;53.330;11.498;2023-02-22T05:51:39;21804.53;;;-147.39;77.65
3524;BME280;1776;53.330;11.498;2023-02-22T05:54:05;21853.28;;;-147.39;77.32
3524;BME280;1776;53.330;11.498;2023-02-22T05:56:30;21810.63;;;-147.39;77.49
3524;BME280;1776;53.330;11.498;2023-02-22T05:58:55;21830.94;;;-147.39;77.65
3524;BME280;1776;53.330;11.498;2023-02-22T06:01:21;21841.09;;;-147.39;77.65
3524;BME280;1776;53.330;11.498;2023-02-22T06:03:48;21792.31;;;-147.39;77.87
3524;BME280;1776;53.330;11.498;2023-02-22T06:06:14;21906.13;;;-147.39;77.56
3524;BME280;1776;53.330;11.498;2023-02-22T06:08:39;21824.84;;;-147.39;77.11
3524;BME280;1776;53.330;11.498;2023-02-22T06:11:04;21869.53;;;-147.39;77.22
3524;BME280;1776;53.330;11.498;2023-02-22T06:13:30;21835.00;;;-147.39;77.09
3524;BME280;1776;53.330;11.498;2023-02-22T06:15:55;21881.75;;;-147.39;76.88
3524;BME280;1776;53.330;11.498;2023-02-22T06:18:20;21855.31;;;-147.39;76.98
3524;BME280;1776;53.330;11.498;2023-02-22T06:20:46;21849.22;;;-147.39;76.79
3524;BME280;1776;53.330;11.498;2023-02-22T06:23:11;21883.78;;;-147.39;76.75
3524;BME280;1776;53.330;11.498;2023-02-22T06:25:36;21802.50;;;-147.39;76.96
3524;BME280;1776;53.330;11.498;2023-02-22T06:28:02;21818.75;;;-147.39;77.93
3524;BME280;1776;53.330;11.498;2023-02-22T06:30:28;21841.09;;;-147.39;77.57
3524;BME280;1776;53.330;11.498;2023-02-22T06:32:54;21843.13;;;-147.39;77.83
3524;BME280;1776;53.330;11.498;2023-02-22T06:35:20;21849.22;;;-147.39;77.84
3524;BME280;1776;53.330;11.498;2023-02-22T06:37:45;21898.00;;;-147.39;77.56
3524;BME280;1776;53.330;11.498;2023-02-22T06:40:11;21835.00;;;-147.39;77.40
3524;BME280;1776;53.330;11.498;2023-02-22T06:42:37;21818.75;;;-147.39;77.35
3524;BME280;1776;53.330;11.498;2023-02-22T06:45:03;21832.97;;;-147.39;77.32
3524;BME280;1776;53.330;11.498;2023-02-22T06:47:28;21812.66;;;-147.39;77.77
3524;BME280;1776;53.330;11.498;2023-02-22T06:49:54;21845.16;;;-147.39;77.46
3524;BME280;1776;53.330;11.498;2023-02-22T06:52:20;21920.34;;;-147.39;77.78
3524;BME280;1776;53.330;11.498;2023-02-22T06:54:46;21830.94;;;-147.39;77.32
3524;BME280;1776;53.330;11.498;2023-02-22T06:57:12;21859.38;;;-147.39;77.29
3524;BME280;1776;53.330;11.498;2023-02-22T06:59:37;21810.63;;;-147.39;77.60
3524;BME280;1776;53.330;11.498;2023-02-22T07:02:02;21830.94;;;-147.39;77.27
3524;BME280;1776;53.330;11.498;2023-02-22T07:04:28;21853.28;;;-147.39;77.32
3524;BME280;1776;53.330;11.498;2023-02-22T07:06:53;21786.22;;;-147.39;77.67
3524;BME280;1776;53.330;11.498;2023-02-22T07:09:18;21780.13;;;-147.39;78.09
3524;BME280;1776;53.330;11.498;2023-02-22T07:11:44;21792.31;;;-147.39;78.66
3524;BME280;1776;53.330;11.498;2023-02-22T07:14:09;21796.41;;;-147.39;78.69
3524;BME280;1776;53.330;11.498;2023-02-22T07:16:35;21776.06;;;-147.39;78.60
3524;BME280;1776;53.330;11.498;2023-02-22T07:19:00;21741.53;;;-147.39;78.82
3524;BME280;1776;53.330;11.498;2023-02-22T07:21:26;21759.81;;;-147.39;78.72
3524;BME280;1776;53.330;11.498;2023-02-22T07:23:53;21727.31;;;-147.39;78.91
3524;BME280;1776;53.330;11.498;2023-02-22T07:26:19;21741.53;;;-147.39;78.81
3524;BME280;1776;53.330;11.498;2023-02-22T07:28:44;21786.22;;;-147.39;78.69
3524;BME280;1776;53.330;11.498;2023-02-22T07:31:09;21792.31;;;-147.39;78.70
3524;BME280;1776;53.330;11.498;2023-02-22T07:33:34;21737.47;;;-147.39;79.49
3524;BME280;1776;53.330;11.498;2023-02-22T07:36:00;21735.44;;;-147.39;79.56
3524;BME280;1776;53.330;11.498;2023-02-22T07:38:25;21729.34;;;-147.39;79.79
3524;BME280;1776;53.330;11.498;2023-02-22T07:40:50;21721.22;;;-147.39;79.56
3524;BME280;1776;53.330;11.498;2023-02-22T07:43:28;21702.91;;;-147.39;79.19
3524;BME280;1776;53.330;11.498;2023-02-22T07:45:57;21702.91;;;-147.39;79.10
3524;BME280;1776;53.330;11.498;2023-02-22T07:48:25;21749.66;;;-147.39;79.33
3524;BME280;1776;53.330;11.498;2023-02-22T07:50:50;21729.34;;;-147.39;79.83
3524;BME280;1776;53.330;11.498;2023-02-22T07:53:23;21711.03;;;-147.39;79.76
3524;BME280;1776;53.330;11.498;2023-02-22T07:55:50;21719.19;;;-147.39;79.54
3524;BME280;1776;53.330;11.498;2023-02-22T07:58:17;21772.00;;;-147.39;79.00
3524;BME280;1776;53.330;11.498;2023-02-22T08:00:42;21843.13;;;-147.39;78.84
3524;BME280;1776;53.330;11.498;2023-02-22T08:03:10;21733.41;;;-147.39;78.55
3524;BME280;1776;53.330;11.498;2023-02-22T08:05:38;21832.97;;;-147.39;79.01
3524;BME280;1776;53.330;11.498;2023-02-22T08:08:05;21788.25;;;-147.39;78.58
3524;BME280;1776;53.330;11.498;2023-02-22T08:10:32;21753.72;;;-147.39;78.91
3524;BME280;1776;53.330;11.498;2023-02-22T08:12:57;21706.97;;;-147.39;78.99
3524;BME280;1776;53.330;11.498;2023-02-22T08:15:31;21727.31;;;-147.39;79.41
3524;BME280;1776;53.330;11.498;2023-02-22T08:17:58;21706.97;;;-147.39;79.45
3524;BME280;1776;53.330;11.498;2023-02-22T08:20:25;21725.28;;;-147.39;79.37
3524;BME280;1776;53.330;11.498;2023-02-22T08:22:51;21709.00;;;-147.39;79.56
3524;BME280;1776;53.330;11.498;2023-02-22T08:25:18;21704.94;;;-147.39;79.87
3524;BME280;1776;53.330;11.498;2023-02-22T08:27:44;21700.88;;;-147.39;79.85
3524;BME280;1776;53.330;11.498;2023-02-22T08:30:18;21729.34;;;-147.39;79.63
3524;BME280;1776;53.330;11.498;2023-02-22T08:32:45;21688.69;;;-147.39;79.60
3524;BME280;1776;53.330;11.498;2023-02-22T08:35:12;21658.22;;;-147.39;79.89
3524;BME280;1776;53.330;11.498;2023-02-22T08:37:41;21690.72;;;-147.39;80.16
3524;BME280;1776;53.330;11.498;2023-02-22T08:40:06;21682.59;;;-147.39;79.37
3524;BME280;1776;53.330;11.498;2023-02-22T08:42:32;21725.28;;;-147.39;79.34
3524;BME280;1776;53.330;11.498;2023-02-22T08:44:57;21761.84;;;-147.39;79.04
3524;BME280;1776;53.330;11.498;2023-02-22T08:47:22;21694.78;;;-147.39;78.53
3524;BME280;1776;53.330;11.498;2023-02-22T08:49:48;21765.91;;;-147.39;78.28
3524;BME280;1776;53.330;11.498;2023-02-22T08:52:13;21767.94;;;-147.39;78.26
3524;BME280;1776;53.330;11.498;2023-02-22T08:54:38;21735.44;;;-147.39;78.26
3524;BME280;1776;53.330;11.498;2023-02-22T08:57:03;21794.38;;;-147.39;77.82
3524;BME280;1776;53.330;11.498;2023-02-22T08:59:30;21780.13;;;-147.39;77.92
3524;BME280;1776;53.330;11.498;2023-02-22T09:01:55;21808.59;;;-147.39;77.76
3524;BME280;1776;53.330;11.498;2023-02-22T09:04:23;21806.56;;;-147.39;77.42
3524;BME280;1776;53.330;11.498;2023-02-22T09:06:48;21812.66;;;-147.39;77.55
3524;BME280;1776;53.330;11.498;2023-02-22T09:09:16;21843.13;;;-147.39;77.46
3524;BME280;1776;53.330;11.498;2023-02-22T09:11:43;21810.63;;;-147.39;77.34
3524;BME280;1776;53.330;11.498;2023-02-22T09:14:08;21822.81;;;-147.39;77.83
3524;BME280;1776;53.330;11.498;2023-02-22T09:16:33;21792.31;;;-147.39;77.76
3524;BME280;1776;53.330;11.498;2023-02-22T09:19:02;21757.78;;;-147.39;78.20
3524;BME280;1776;53.330;11.498;2023-02-22T09:21:27;21788.25;;;-147.39;78.36
3524;BME280;1776;53.330;11.498;2023-02-22T09:23:53;21794.38;;;-147.39;78.07
3524;BME280;1776;53.330;11.498;2023-02-22T09:26:20;21737.47;;;-147.39;77.99
3524;BME280;1776;53.330;11.498;2023-02-22T09:28:57;21786.22;;;-147.39;78.66
3524;BME280;1776;53.330;11.498;2023-02-22T09:31:22;21741.53;;;-147.39;79.07
3524;BME280;1776;53.330;11.498;2023-02-22T09:33:48;21735.44;;;-147.39;78.90
3524;BME280;1776;53.330;11.498;2023-02-22T09:36:13;21713.06;;;-147.39;78.76
3524;BME280;1776;53.330;11.498;2023-02-22T09:38:38;21808.59;;;-147.39;78.68
3524;BME280;1776;53.330;11.498;2023-02-22T09:43:48;21780.13;;;-147.39;78.46
3524;BME280;1776;53.330;11.498;2023-02-22T09:46:29;21828.91;;;-147.39;79.08
3524;BME280;1776;53.330;11.498;2023-02-22T09:54:39;21780.13;;;-147.39;78.07
3524;BME280;1776;53.330;11.498;2023-02-22T09:57:15;21800.47;;;-147.39;78.13
3524;BME280;1776;53.330;11.498;2023-02-22T09:59:46;21792.31;;;-147.39;77.86
3524;BME280;1776;53.330;11.498;2023-02-22T10:02:25;21731.38;;;-147.39;78.68
3524;BME280;1776;53.330;11.498;2023-02-22T10:04:59;21804.53;;;-147.39;77.99
3524;BME280;1776;53.330;11.498;2023-02-22T10:07:45;21755.75;;;-147.39;78.01
3524;BME280;1776;53.330;11.498;2023-02-22T10:10:20;21706.97;;;-147.39;77.92
3524;BME280;1776;53.330;11.498;2023-02-22T10:13:04;21802.50;;;-147.39;78.38
3524;BME280;1776;53.330;11.498;2023-02-22T10:16:06;21786.22;;;-147.39;78.22
3524;BME280;1776;53.330;11.498;2023-02-22T10:21:34;21786.22;;;-147.39;77.61
3524;BME280;1776;53.330;11.498;2023-02-22T10:27:04;21857.34;;;-147.39;76.70
3524;BME280;1776;53.330;11.498;2023-02-22T10:29:32;21867.50;;;-147.39;77.02
3524;BME280;1776;53.330;11.498;2023-02-22T10:32:03;21804.53;;;-147.39;77.51
3524;BME280;1776;53.330;11.498;2023-02-22T10:34:34;21818.75;;;-147.39;77.21
3524;BME280;1776;53.330;11.498;2023-02-22T10:37:22;21930.50;;;-147.39;76.84
3524;BME280;1776;53.330;11.498;2023-02-22T10:39:50;21841.09;;;-147.39;76.64
3524;BME280;1776;53.330;11.498;2023-02-22T10:42:21;21881.75;;;-147.39;76.71
3524;BME280;1776;53.330;11.498;2023-02-22T10:44:49;21835.00;;;-147.39;77.09
3524;BME280;1776;53.330;11.498;2023-02-22T10:47:14;21806.56;;;-147.39;76.92
3524;BME280;1776;53.330;11.498;2023-02-22T10:49:43;21804.53;;;-147.39;77.23
3524;BME280;1776;53.330;11.498;2023-02-22T10:52:23;21948.81;;;-147.39;77.21
3524;BME280;1776;53.330;11.498;2023-02-22T10:54:50;21830.94;;;-147.39;77.96
3524;BME280;1776;53.330;11.498;2023-02-22T10:57:25;21800.47;;;-147.39;77.31
3524;BME280;1776;53.330;11.498;2023-02-22T10:59:50;21930.50;;;-147.39;77.13
3524;BME280;1776;53.330;11.498;2023-02-22T11:02:23;21859.38;;;-147.39;77.10
3524;BME280;1776;53.330;11.498;2023-02-22T11:04:53;21875.66;;;-147.39;76.75
3524;BME280;1776;53.330;11.498;2023-02-22T11:07:38;21871.59;;;-147.39;76.84
3524;BME280;1776;53.330;11.498;2023-02-22T11:10:07;21926.44;;;-147.39;77.00
3524;BME280;1776;53.330;11.498;2023-02-22T11:17:50;21885.81;;;-147.39;76.42
3524;BME280;1776;53.330;11.498;2023-02-22T11:20:27;21873.63;;;-147.39;76.57
3524;BME280;1776;53.330;11.498;2023-02-22T11:22:55;21879.72;;;-147.39;76.37
3524;BME280;1776;53.330;11.498;2023-02-22T11:25:26;21887.84;;;-147.39;76.36
3524;BME280;1776;53.330;11.498;2023-02-22T11:27:52;21873.63;;;-147.39;76.33
3524;BME280;1776;53.330;11.498;2023-02-22T11:30:28;21914.25;;;-147.39;76.13
3524;BME280;1776;53.330;11.498;2023-02-22T11:33:17;21877.69;;;-147.39;76.31
3524;BME280;1776;53.330;11.498;2023-02-22T11:36:01;21902.06;;;-147.39;76.09
3524;BME280;1776;53.330;11.498;2023-02-22T11:38:31;21916.28;;;-147.39;75.92
3524;BME280;1776;53.330;11.498;2023-02-22T11:41:17;21883.78;;;-147.39;76.37
3524;BME280;1776;53.330;11.498;2023-02-22T11:43:45;21934.56;;;-147.39;75.92
3524;BME280;1776;53.330;11.498;2023-02-22T11:46:21;21885.81;;;-147.39;75.46
3524;BME280;1776;53.330;11.498;2023-02-22T11:48:57;21954.91;;;-147.39;75.26
3524;BME280;1776;53.330;11.498;2023-02-22T11:52:00;21926.44;;;-147.39;75.40
3524;BME280;1776;53.330;11.498;2023-02-22T11:57:34;21969.13;;;-147.39;75.48
3524;BME280;1776;53.330;11.498;2023-02-22T12:08:19;21997.56;;;-147.39;74.51
3524;BME280;1776;53.330;11.498;2023-02-22T12:11:12;22028.06;;;-147.39;74.20
3524;BME280;1776;53.330;11.498;2023-02-22T12:16:18;22040.25;;;-147.39;73.97
3524;BME280;1776;53.330;11.498;2023-02-22T12:19:25;22046.34;;;-147.39;73.94
3524;BME280;1776;53.330;11.498;2023-02-22T12:21:56;22024.00;;;-147.39;74.34
3524;BME280;1776;53.330;11.498;2023-02-22T12:24:27;22013.84;;;-147.39;73.98
3524;BME280;1776;53.330;11.498;2023-02-22T12:27:02;22044.31;;;-147.39;73.99
3524;BME280;1776;53.330;11.498;2023-02-22T12:29:40;22048.38;;;-147.39;74.15
3524;BME280;1776;53.330;11.498;2023-02-22T12:32:18;22042.28;;;-147.39;73.94
3524;BME280;1776;53.330;11.498;2023-02-22T12:34:52;22024.00;;;-147.39;73.73
3524;BME280;1776;53.330;11.498;2023-02-22T12:37:24;22060.56;;;-147.39;73.35
3524;BME280;1776;53.330;11.498;2023-02-22T12:43:07;22078.84;;;-147.39;72.94
3524;BME280;1776;53.330;11.498;2023-02-22T12:45:50;22109.34;;;-147.39;72.90
3524;BME280;1776;53.330;11.498;2023-02-22T12:48:25;22271.94;;;-147.39;72.74
3524;BME280;1776;53.330;11.498;2023-02-22T12:50:58;22115.44;;;-147.39;72.43
3524;BME280;1776;53.330;11.498;2023-02-22T12:53:27;22160.16;;;-147.39;71.69
3524;BME280;1776;53.330;11.498;2023-02-22T12:56:01;22239.41;;;-147.39;71.07
3524;BME280;1776;53.330;11.498;2023-02-22T12:58:36;22251.59;;;-147.39;70.80
3524;BME280;1776;53.330;11.498;2023-02-22T13:01:16;22213.00;;;-147.39;71.18
3524;BME280;1776;53.330;11.498;2023-02-22T13:03:44;22253.63;;;-147.39;70.68
3524;BME280;1776;53.330;11.498;2023-02-22T13:06:32;22206.91;;;-147.39;71.63
3524;BME280;1776;53.330;11.498;2023-02-22T13:09:07;22219.09;;;-147.39;71.06
3524;BME280;1776;53.330;11.498;2023-02-22T13:11:46;22263.78;;;-147.39;70.94
3524;BME280;1776;53.330;11.498;2023-02-22T13:14:26;22359.31;;;-147.39;70.57
3524;BME280;1776;53.330;11.498;2023-02-22T13:17:27;22349.16;;;-147.39;69.40
3524;BME280;1776;53.330;11.498;2023-02-22T13:20:05;22357.28;;;-147.39;69.42
3524;BME280;1776;53.330;11.498;2023-02-22T13:22:47;22371.50;;;-147.39;68.45
3524;BME280;1776;53.330;11.498;2023-02-22T13:25:19;22391.84;;;-147.39;68.53
3524;BME280;1776;53.330;11.498;2023-02-22T13:27:52;22442.66;;;-147.39;68.00
3524;BME280;1776;53.330;11.498;2023-02-22T13:30:34;22458.91;;;-147.39;68.15
3524;BME280;1776;53.330;11.498;2023-02-22T13:33:24;22479.22;;;-147.39;67.74
3524;BME280;1776;53.330;11.498;2023-02-22T13:36:13;22521.91;;;-147.39;66.71
3524;BME280;1776;53.330;11.498;2023-02-22T13:38:58;22462.97;;;-147.39;67.64
3524;BME280;1776;53.330;11.498;2023-02-22T13:47:23;22568.66;;;-147.39;66.70
3524;BME280;1776;53.330;11.498;2023-02-22T13:52:44;22479.22;;;-147.39;68.26
3524;BME280;1776;53.330;11.498;2023-02-22T13:55:21;22584.91;;;-147.39;67.62
3524;BME280;1776;53.330;11.498;2023-02-22T13:57:59;22503.63;;;-147.39;67.98
3524;BME280;1776;53.330;11.498;2023-02-22T14:13:18;22523.94;;;-147.39;68.20
3524;BME280;1776;53.330;11.498;2023-02-22T14:18:30;22576.78;;;-147.39;67.96
3524;BME280;1776;53.330;11.498;2023-02-22T14:21:16;22521.91;;;-147.39;67.69
3524;BME280;1776;53.330;11.498;2023-02-22T14:23:45;22548.34;;;-147.39;67.92
3524;BME280;1776;53.330;11.498;2023-02-22T14:26:57;22538.16;;;-147.39;67.83
3524;BME280;1776;53.330;11.498;2023-02-22T14:34:15;22509.72;;;-147.39;68.46
3524;BME280;1776;53.330;11.498;2023-02-22T14:37:02;22460.94;;;-147.39;68.90